TimeCST,TemperatureF,Dew PointF,Humidity,Sea Level PressureIn,VisibilityMPH,Wind Direction,Wind SpeedMPH,Gust SpeedMPH,PrecipitationIn,Events,Conditions,WindDirDegrees,DateUTC
12:52 AM,68.0,59.0,73,30.04,10.0,North,4.6,-,N/A,,Clear,10,2012-11-05 06:52:00
1:52 AM,66.9,60.1,79,30.04,10.0,NNW,3.5,-,N/A,,Clear,330,2012-11-05 07:52:00
2:52 AM,64.9,59.0,81,30.03,10.0,NNW,3.5,-,N/A,,Clear,330,2012-11-05 08:52:00
3:52 AM,64.0,61.0,90,30.02,10.0,Calm,Calm,-,N/A,,Clear,0,2012-11-05 09:52:00
4:52 AM,64.0,60.1,87,30.02,10.0,West,3.5,-,N/A,,Clear,270,2012-11-05 10:52:00
5:52 AM,64.0,61.0,90,30.03,10.0,Calm,Calm,-,N/A,,Clear,0,2012-11-05 11:52:00
6:52 AM,61.0,57.9,90,30.03,10.0,Calm,Calm,-,N/A,,Clear,0,2012-11-05 12:52:00
7:52 AM,66.9,63.0,87,30.05,10.0,Calm,Calm,-,N/A,,Clear,0,2012-11-05 13:52:00
8:52 AM,75.0,63.0,66,30.06,10.0,North,3.5,-,N/A,,Clear,360,2012-11-05 14:52:00
9:52 AM,80.1,64.0,58,30.07,10.0,Calm,Calm,-,N/A,,Clear,0,2012-11-05 15:52:00
10:52 AM,84.0,64.0,51,30.05,10.0,South,5.8,-,N/A,,Clear,190,2012-11-05 16:52:00
11:52 AM,84.9,63.0,48,30.04,10.0,SSW,4.6,-,N/A,,Clear,200,2012-11-05 17:52:00
12:52 PM,88.0,62.1,42,29.99,10.0,Variable,4.6,-,N/A,,Clear,0,2012-11-05 18:52:00
1:52 PM,89.1,62.1,40,29.96,10.0,Variable,5.8,-,N/A,,Clear,0,2012-11-05 19:52:00
2:52 PM,89.1,63.0,42,29.95,10.0,Variable,6.9,-,N/A,,Clear,0,2012-11-05 20:52:00
3:52 PM,88.0,61.0,40,29.94,10.0,SSW,6.9,-,N/A,,Partly Cloudy,200,2012-11-05 21:52:00
4:52 PM,86.0,62.1,44,29.94,10.0,South,5.8,-,N/A,,Clear,190,2012-11-05 22:52:00
5:52 PM,81.0,66.0,60,29.95,10.0,SE,12.7,-,N/A,,Clear,130,2012-11-05 23:52:00
6:52 PM,79.0,66.9,66,29.98,10.0,SE,11.5,-,N/A,,Clear,130,2012-11-06 00:52:00
7:52 PM,75.9,66.9,74,29.99,10.0,SSE,9.2,-,N/A,,Clear,150,2012-11-06 01:52:00
8:52 PM,73.9,66.9,79,30.01,10.0,South,8.1,-,N/A,,Clear,170,2012-11-06 02:52:00
9:52 PM,73.9,69.1,85,30.01,10.0,South,9.2,-,N/A,,Clear,180,2012-11-06 03:52:00
10:52 PM,73.9,69.1,85,30.01,10.0,South,9.2,-,N/A,,Clear,190,2012-11-06 04:52:00
11:52 PM,73.0,69.1,87,30.00,10.0,South,9.2,-,N/A,,Clear,190,2012-11-06 05:52:00